x

West Santa Barbara 38 Nm West Of Santa Barbara, Ca (46054) Wave Buoy

8:50 - Sun 30th Aug 2015 All times are PDT. -7 hours from GMT.

  • Sig Wave height 7.2ft
  • Swell Direction
  • Peak Period 6s
  • Average Period 6s
  • Wind
    29mph, 34mph gusts
  • Sea Temp 66°f
  • Air Temp 64°f
  • Sea Pressure 1013.1mb
  • West Santa Barbara  38 Nm West Of Santa Barbara, Ca
  • West Santa Barbara  38 Nm West Of Santa Barbara, Ca

More Historic Weather Station data

Upgrade to MSW Pro to gain access to the past 30 days of data for over 8000 Wavebouys and Weather Stations around the globe.

Join Pro

Comparision Forecast

View Surf forecast
   
dim. 08/30 8:50 7ft 6s 6s 29 34 mph 1013.1mb 66f 64f
7:50 6.5ft 6s 5s 29 36 mph 1012.8mb 66f 65f
6:50 6ft 6s 5s 31 40 mph 1012.2mb 66f 65f
5:50 6ft 6s 5s 31 38 mph 1011.7mb 66f 65f
4:50 5.5ft 6s 5s 27 34 mph 1011.7mb 67f 65f
3:50 5ft 5s 5s 27 34 mph 1012.1mb 67f 65f
2:50 5ft 14s 5s 25 29 mph 1012.3mb 67f 65f
1:50 5ft 15s 6s 25 29 mph 1012mb 66f 65f
12:50 5ft 14s 5s 27 31 mph 1012.1mb 65f 65f
sam. 08/29 11:50 5ft 5s 5s 25 29 mph 1011.9mb 65f 65f
10:50 5ft 15s 6s 25 31 mph 1012mb 64f 65f
9:50 6ft 5s 5s 27 31 mph 1011.8mb 64f 65f
8:50 5.5ft 15s 5s 27 34 mph 1011.5mb 65f 65f
7:50 5.5ft 14s 5s 27 34 mph 1011.2mb 66f 65f
6:50 5ft 5s 5s 27 34 mph 1011.2mb 67f 67f
5:50 5ft 15s 5s 27 31 mph 1011.3mb 68f 67f
4:50 5ft 14s 5s 27 31 mph 1011.6mb 68f 68f
3:50 5ft 15s 5s 25 29 mph 1011.9mb 68f 68f
2:50 5ft 15s 5s 25 29 mph 1012.1mb 68f 67f
1:50 5ft 15s 5s 27 31 mph 1012.1mb 68f 67f
12:50 5ft 5s 5s 25 29 mph 1012.3mb 68f 66f
11:50 5ft 15s 5s 25 29 mph 1012.7mb 68f 65f
10:50 5.5ft 15s 6s 27 34 mph 1012.4mb 68f 65f
9:50 5ft 5s 5s 25 29 mph 1012.3mb 68f 65f
8:50 5.5ft 6s 5s 27 31 mph 1012mb 67f 64f
7:50 6ft 15s 6s 27 31 mph 1011.7mb 67f 64f
6:50 5.5ft 15s 5s 27 31 mph 1011mb 67f 64f
5:50 5ft 14s 5s 27 31 mph 1011mb 68f 64f
4:50 5ft 15s 5s 22 29 mph 1011mb 68f 64f
3:50 5ft 15s 5s 25 29 mph 1010.8mb 68f 64f
2:50 5ft 15s 5s 27 31 mph 1010.6mb 67f 64f
1:50 5ft 15s 5s 20 25 mph 1010.8mb 67f 65f
12:50 4.5ft 15s 5s 22 27 mph 1010.9mb 67f 65f
ven. 08/28 11:50 4.5ft 16s 5s 22 25 mph 1010.9mb 66f 65f
10:50 4.5ft 15s 6s 25 29 mph 1010.8mb 66f 65f
9:50 4.5ft 16s 5s 22 27 mph 1010.9mb 67f 65f
8:50 4.5ft 15s 5s 22 27 mph 1010.6mb 68f 65f
7:50 5ft 15s 5s 25 31 mph 1010.2mb 68f 65f
6:50 5ft 15s 5s 25 29 mph 1009.9mb 68f 65f
5:50 4ft 15s 5s 22 25 mph 1009.9mb 69f 66f
4:50 4ft 16s 5s 20 25 mph 1009.6mb 69f 68f
3:50 4.5ft 15s 6s 20 22 mph 1010.2mb 69f 68f
2:50 4.5ft 15s 6s 16 18 mph 1010.8mb 70f 68f
1:50 4.5ft 15s 7s 13 18 mph 1011.2mb 70f 68f
12:50 4.5ft 15s 7s 11 16 mph 1011.6mb 70f 68f
11:50 4ft 15s 7s 4
mph
1012mb 70f 69f
10:50 4ft 14s 7s 7
mph
1011.9mb 70f 69f
9:50 4.5ft 15s 7s 2 4 mph 1011.8mb 70f 71f
8:50 4.5ft 15s 6s 7 9 mph 1011.6mb 68f 68f
7:50 4.5ft 16s 6s 9 11 mph 1011.6mb 68f 67f
6:50 4.5ft 16s 6s 9 11 mph 1011.3mb 67f 67f
5:50 4.5ft 14s 6s 9 11 mph 1011mb 67f 67f
4:50 4.5ft 15s 6s 9 11 mph 1010.7mb 67f 67f
3:50 5ft 7s 6s 13 16 mph 1010.5mb 67f 67f
2:50 5ft 6s 6s 16 20 mph 1010.5mb 67f 67f
1:50 4.5ft 6s 5s 20 22 mph 1010.9mb 66f 67f
12:50 5ft 14s 5s 25 29 mph 1010.9mb 66f 68f
jeu. 08/27 11:50 5ft 15s 5s 22 27 mph 1011.1mb 66f 67f
10:50 4.5ft 16s 5s 22 27 mph 1011.1mb 66f 68f
9:50 4.5ft 15s 5s 22 27 mph 1011mb 66f 69f
8:50 4.5ft 15s 5s 22 25 mph 1010.7mb 67f 69f
7:50 4.5ft 16s 5s 25 29 mph 1010.2mb 67f 69f
6:50 4ft 16s 5s 25 29 mph 1010.3mb 68f 69f
5:50 3.5ft 14s 5s 20 25 mph 1011mb 68f 68f
4:50 3.5ft 15s 5s 16 20 mph 1011.5mb 68f 68f
3:50 3.5ft 15s 6s 13 16 mph 1012.4mb 68f 68f
2:50 3.5ft 14s 6s 13 16 mph 1013.2mb 68f 67f
1:50 3.5ft 14s 6s 11 13 mph 1013.8mb 68f 67f
12:50 3.5ft 15s 6s 11 13 mph 1014.3mb 68f 67f
11:50 3.5ft 13s 6s 9 11 mph 1015mb 68f 66f
10:50 3.5ft 6s 6s 7 9 mph 1015.1mb 67f 66f
9:50 3ft 14s 6s 9 11 mph 1014.8mb 67f 66f
8:50 3.5ft 15s 6s 9 11 mph 1014.6mb 67f 66f
7:50 3.5ft 15s 6s 9 11 mph 1014.5mb 67f 66f
6:50 3.5ft 15s 6s 7 9 mph 1014.1mb 67f 67f
5:50 3.5ft 15s 5s 9
mph
1013.6mb 67f 68f
4:50 4ft 15s 5s 9 11 mph 1013.1mb 67f 67f
3:50 4.5ft 15s 5s 16 18 mph 1013.1mb 67f 66f
2:50 4.5ft 5s 5s 18 20 mph 1012.6mb 67f 66f
1:50 4.5ft 15s 5s 20 25 mph 1012.4mb 67f 66f
12:50 4.5ft 15s 5s 22 27 mph 1012.6mb 67f 66f
mer. 08/26 11:50 4.5ft 6s 5s 20 25 mph 1012.8mb 67f 66f
10:50 4ft 6s 5s 22 25 mph 1013.3mb 66f 66f
9:50 3.5ft 15s 5s 20 25 mph 1013.2mb 66f 65f
8:50 4.5ft 15s 5s 20 25 mph 1012.8mb 66f 65f
7:50 4ft 15s 5s 22 27 mph 1012.2mb 66f 66f
6:50 3.5ft 11s 5s 18 22 mph 1012.2mb 66f 66f
5:50 3.5ft 5s 5s 20 22 mph 1012.4mb 67f 66f